createdAt,value
2023-03-31T00:03:49.215Z,100018.23
2023-03-31T00:09:14.962Z,100015.33
2023-03-31T00:14:41.568Z,100007.30
2023-03-31T00:20:07.212Z,100006.99
2023-03-31T00:25:33.130Z,99998.89
2023-03-31T00:30:49.082Z,99998.13
2023-03-31T00:36:14.876Z,99992.89
2023-03-31T00:41:40.689Z,99987.65
2023-03-31T00:47:04.402Z,99983.48
2023-03-31T00:52:36.327Z,99980.70
2023-03-31T00:58:04.768Z,99970.74
2023-03-31T01:03:30.788Z,99964.13
2023-03-31T01:08:58.724Z,99961.80
2023-03-31T01:14:24.463Z,99946.88
2023-03-31T01:20:13.867Z,99944.41
2023-03-31T01:26:13.378Z,99934.55
2023-03-31T01:32:15.813Z,99920.83
2023-03-31T01:38:00.564Z,99914.56
2023-03-31T01:43:38.147Z,99917.50
2023-03-31T01:49:09.421Z,99913.58
2023-03-31T01:54:43.744Z,99903.65
2023-03-31T02:00:20.251Z,99899.67
2023-03-31T02:05:52.000Z,99902.10
2023-03-31T02:11:19.630Z,99897.09
2023-03-31T02:16:50.042Z,99889.28
2023-03-31T02:22:16.799Z,99883.72
2023-03-31T02:27:45.656Z,99877.71
2023-03-31T02:33:11.324Z,99874.14
2023-03-31T02:38:37.183Z,99871.34
2023-03-31T02:44:03.038Z,99869.92
2023-03-31T02:49:33.521Z,99861.48
2023-03-31T02:55:12.497Z,99848.64
2023-03-31T03:00:49.260Z,99841.95
2023-03-31T03:06:24.344Z,99845.19
2023-03-31T03:11:58.558Z,99845.19
2023-03-31T03:17:31.166Z,99838.75
2023-03-31T03:22:57.091Z,99834.26
2023-03-31T03:28:22.726Z,99827.95
2023-03-31T03:33:48.479Z,99817.52
2023-03-31T03:39:14.129Z,99810.91
2023-03-31T03:44:39.961Z,99806.45
2023-03-31T03:50:05.720Z,99804.44
2023-03-31T03:55:31.930Z,99800.91
2023-03-31T04:00:58.130Z,99798.83
2023-03-31T04:06:24.029Z,99790.14
2023-03-31T04:11:49.948Z,99780.71
2023-03-31T04:17:16.105Z,99771.95
2023-03-31T04:22:41.812Z,99773.45
2023-03-31T04:28:15.546Z,99771.45
2023-03-31T04:33:41.185Z,99759.35
2023-03-31T04:39:08.472Z,99753.19
2023-03-31T04:44:34.168Z,99753.00
2023-03-31T04:49:59.960Z,99738.85
2023-03-31T04:55:26.692Z,99730.26
2023-03-31T05:00:52.457Z,99728.55
2023-03-31T05:06:11.119Z,99725.45
2023-03-31T05:11:29.356Z,99718.27
2023-03-31T05:16:55.146Z,99706.39
2023-03-31T05:22:21.000Z,99699.71
2023-03-31T05:27:46.811Z,99691.05
2023-03-31T05:33:12.518Z,99687.27
2023-03-31T05:38:38.330Z,99683.17
2023-03-31T05:43:56.917Z,99680.84
2023-03-31T05:49:22.677Z,99678.16
2023-03-31T05:54:48.700Z,99673.41
2023-03-31T06:00:14.592Z,99664.39
2023-03-31T06:05:40.318Z,99660.95
2023-03-31T06:11:06.191Z,99650.95
2023-03-31T06:16:43.094Z,99641.48
2023-03-31T06:22:08.779Z,99644.76
2023-03-31T06:27:35.969Z,99630.27
2023-03-31T06:33:01.783Z,99625.80
2023-03-31T06:38:28.489Z,99621.79
2023-03-31T06:43:54.387Z,99620.20
2023-03-31T06:49:20.239Z,99617.17
2023-03-31T06:54:45.990Z,99610.80
2023-03-31T07:00:11.765Z,99609.14
2023-03-31T07:05:37.432Z,99604.78
2023-03-31T07:11:03.828Z,99593.44
2023-03-31T07:16:30.069Z,99590.02
2023-03-31T07:21:54.330Z,99587.35
2023-03-31T07:27:19.964Z,99577.03
2023-03-31T07:32:46.021Z,99573.23
2023-03-31T07:38:12.632Z,99571.84
2023-03-31T07:43:38.452Z,99566.48
2023-03-31T07:49:04.471Z,99556.56
2023-03-31T07:54:30.152Z,99553.48
2023-03-31T07:59:56.332Z,99548.89
2023-03-31T08:05:22.110Z,99550.56
2023-03-31T08:10:49.017Z,99542.66
2023-03-31T08:16:14.915Z,99530.92
2023-03-31T08:21:40.666Z,99527.17
2023-03-31T08:27:11.902Z,99521.63
2023-03-31T08:32:36.989Z,99517.10
2023-03-31T08:38:02.729Z,99507.52
2023-03-31T08:43:37.063Z,99501.96
2023-03-31T08:49:10.616Z,99485.44
2023-03-31T08:54:41.126Z,99478.25
2023-03-31T09:00:07.095Z,99467.86
2023-03-31T09:05:56.777Z,99467.71
2023-03-31T09:11:27.077Z,99463.63
2023-03-31T09:16:59.863Z,99454.71
2023-03-31T09:22:30.123Z,99452.02
2023-03-31T09:27:58.104Z,99440.58
2023-03-31T09:33:34.739Z,99432.02
2023-03-31T09:39:02.803Z,99419.55
2023-03-31T09:44:42.148Z,99402.66
2023-03-31T09:50:08.402Z,99394.90
2023-03-31T09:55:43.112Z,99385.55
2023-03-31T10:01:21.682Z,99372.42
2023-03-31T10:06:47.669Z,99367.67
2023-03-31T10:12:19.729Z,99364.49
2023-03-31T10:23:24.384Z,99351.14
2023-03-31T10:28:54.537Z,99340.36
2023-03-31T10:34:25.247Z,99333.90
2023-03-31T10:39:54.645Z,99327.93
2023-03-31T10:45:44.087Z,99321.84
2023-03-31T10:51:08.520Z,99316.30
2023-03-31T10:57:00.356Z,99311.60
2023-03-31T11:02:51.446Z,99305.25
2023-03-31T11:08:33.677Z,99291.04
2023-03-31T11:14:07.458Z,99286.52
2023-03-31T11:19:48.212Z,99281.33
2023-03-31T11:25:35.903Z,99270.43
2023-03-31T11:31:08.319Z,99266.83
2023-03-31T11:36:54.768Z,99258.21
2023-03-31T11:42:25.428Z,99242.91
2023-03-31T11:47:52.465Z,99226.96
2023-03-31T11:53:24.025Z,99213.27
2023-03-31T11:58:57.700Z,99206.89
2023-03-31T12:04:29.981Z,99205.38
2023-03-31T12:10:08.618Z,99195.17
2023-03-31T12:15:43.006Z,99183.77
2023-03-31T12:21:17.359Z,99177.45
2023-03-31T12:26:58.586Z,99178.61
2023-03-31T12:32:30.195Z,99176.87
2023-03-31T12:38:20.299Z,99176.16
2023-03-31T12:44:24.635Z,99159.11
2023-03-31T12:50:05.357Z,99154.70
2023-03-31T12:55:47.337Z,99141.48
2023-03-31T13:01:26.813Z,99131.90
2023-03-31T13:07:28.362Z,99127.05
2023-03-31T13:12:55.298Z,99129.20
2023-03-31T13:18:22.996Z,99147.27
2023-03-31T13:23:54.113Z,99133.48
2023-03-31T13:29:41.853Z,99126.70
2023-03-31T13:35:11.877Z,99124.38
2023-03-31T13:40:56.307Z,99121.86
2023-03-31T13:46:41.005Z,99124.04
2023-03-31T13:52:14.761Z,99121.55
2023-03-31T13:58:01.064Z,99122.96
2023-03-31T14:03:45.677Z,99116.81
2023-03-31T14:09:15.051Z,99120.63
2023-03-31T14:14:41.113Z,99119.96
2023-03-31T14:20:39.868Z,99123.38
2023-03-31T14:26:13.566Z,99126.58
2023-03-31T14:31:47.761Z,99128.98
2023-03-31T14:37:20.921Z,99127.52
2023-03-31T14:42:52.876Z,99125.23
2023-03-31T14:48:30.742Z,99116.30
2023-03-31T14:53:57.683Z,99114.17
2023-03-31T14:59:27.130Z,99111.92
2023-03-31T15:05:02.003Z,99110.90
2023-03-31T15:10:29.083Z,99105.70
2023-03-31T15:15:54.996Z,99106.98
2023-03-31T15:21:20.844Z,99104.01
2023-03-31T15:26:53.985Z,99101.96
2023-03-31T15:32:20.463Z,99102.73
2023-03-31T15:37:48.661Z,99101.06
2023-03-31T15:48:51.295Z,99108.52
2023-03-31T15:54:18.695Z,99106.83
2023-03-31T15:59:55.425Z,99102.48
2023-03-31T16:05:54.388Z,99099.10
2023-03-31T16:11:25.577Z,99097.60
2023-03-31T16:16:52.506Z,99095.69
2023-03-31T16:22:20.881Z,99090.83
2023-03-31T16:27:46.910Z,99091.77
2023-03-31T16:33:24.768Z,99090.69
2023-03-31T16:38:43.979Z,99093.80
2023-03-31T16:44:09.644Z,99096.35
2023-03-31T16:49:35.478Z,99097.09
2023-03-31T16:55:01.204Z,99095.86
2023-03-31T17:00:30.117Z,99099.88
2023-03-31T17:05:55.123Z,99094.84
2023-03-31T17:11:25.126Z,99094.55
2023-03-31T17:16:48.494Z,99093.86
2023-03-31T17:22:14.780Z,99102.66
2023-03-31T17:27:40.481Z,99101.56
2023-03-31T17:33:06.327Z,99104.73
2023-03-31T17:38:32.478Z,99105.94
2023-03-31T17:43:58.503Z,99108.11
2023-03-31T17:49:24.203Z,99107.65
2023-03-31T17:54:50.855Z,99104.98
2023-03-31T18:00:16.638Z,99104.42
2023-03-31T18:05:35.569Z,99109.89
2023-03-31T18:11:01.583Z,99112.90
2023-03-31T18:16:29.465Z,99113.30
2023-03-31T18:21:55.358Z,99113.25
2023-03-31T18:27:22.540Z,99112.94
2023-03-31T18:32:50.102Z,99114.27
2023-03-31T18:38:16.134Z,99114.36
2023-03-31T18:43:42.770Z,99114.40
2023-03-31T18:49:08.545Z,99116.16
2023-03-31T18:54:34.220Z,99115.42
2023-03-31T18:59:59.913Z,99110.26
2023-03-31T19:05:26.356Z,99114.84
2023-03-31T19:10:52.846Z,99114.41
2023-03-31T19:16:18.846Z,99116.60
2023-03-31T19:21:37.308Z,99116.73
2023-03-31T19:27:02.991Z,99121.21
2023-03-31T19:32:29.334Z,99121.17
2023-03-31T19:37:55.000Z,99121.79
2023-03-31T19:43:20.813Z,99118.99
2023-03-31T19:48:47.617Z,99120.58
2023-03-31T19:54:13.679Z,99119.73
2023-03-31T19:59:39.417Z,99120.91
2023-03-31T20:05:05.104Z,99119.33
2023-03-31T20:10:31.505Z,99118.20
2023-03-31T20:15:57.303Z,99118.81
2023-03-31T20:21:31.712Z,99112.63
2023-03-31T20:26:57.440Z,99111.95
2023-03-31T20:32:23.324Z,99109.06
2023-03-31T20:37:49.022Z,99109.39
2023-03-31T20:43:14.742Z,99112.14
2023-03-31T20:48:49.142Z,99113.55
2023-03-31T20:54:04.887Z,99110.99
2023-03-31T20:59:33.274Z,99110.81
2023-03-31T21:04:59.053Z,99112.27
2023-03-31T21:10:25.642Z,99114.59
2023-03-31T21:15:51.439Z,99123.48
2023-03-31T21:21:18.829Z,99125.23
2023-03-31T21:26:44.706Z,99125.77
2023-03-31T21:32:10.424Z,99132.00
2023-03-31T21:37:36.329Z,99131.44
2023-03-31T21:43:02.161Z,99133.38
2023-03-31T21:48:30.263Z,99134.16
2023-03-31T21:53:56.042Z,99141.43
2023-03-31T21:59:22.918Z,99143.23
2023-03-31T22:04:48.745Z,99141.86
2023-03-31T22:10:14.653Z,99140.86
2023-03-31T22:15:33.347Z,99148.42
2023-03-31T22:21:00.457Z,99149.36
2023-03-31T22:26:26.213Z,99148.08
2023-03-31T22:31:51.926Z,99147.61
2023-03-31T22:37:18.040Z,99148.18
2023-03-31T22:42:43.740Z,99150.64
2023-03-31T22:48:09.522Z,99156.65
2023-03-31T22:53:35.230Z,99159.48
2023-03-31T22:59:01.234Z,99154.66
2023-03-31T23:04:27.075Z,99164.59
2023-03-31T23:09:52.997Z,99168.11
2023-03-31T23:15:18.642Z,99170.58
2023-03-31T23:20:44.421Z,99173.88
2023-03-31T23:26:10.162Z,99174.08
2023-03-31T23:31:36.811Z,99171.18
2023-03-31T23:37:02.710Z,99175.98
2023-03-31T23:42:29.692Z,99171.48
2023-03-31T23:47:55.452Z,99168.86
2023-03-31T23:53:21.201Z,99169.57
2023-03-31T23:58:47.646Z,99169.20
